Terminal Aerodrome Forecast
Issued by NWS

Home | Current Version | Previous Version | Text Only | Print | Product List | Glossary On
Versions: 1 2 3 4 5 6 7 8 9 10 11 12
000
FTUS46 KMTR 110520
TAFSJC
TAF
KSJC 110520Z 1106/1206 VRB03KT P6SM FEW250
     FM111400 00000KT P6SM SCT250
     FM112100 30004KT P6SM SCT250
     FM120300 VRB03KT P6SM SCT250=

USA.gov is the U.S. government's official web portal to all federal, state and local government web resources and services.